createdAt,value
2019-06-27T00:01:12.367Z,102574.69
2019-06-27T00:04:06.071Z,102576.07
2019-06-27T00:07:00.042Z,102573.74
2019-06-27T00:10:03.949Z,102583.17
2019-06-27T00:13:05.335Z,102579.20
2019-06-27T00:16:06.291Z,102585.67
2019-06-27T00:19:04.358Z,102580.48
2019-06-27T00:22:01.503Z,102576.55
2019-06-27T00:25:14.191Z,102580.69
2019-06-27T00:28:16.367Z,102583.97
2019-06-27T00:31:22.239Z,102588.85
2019-06-27T00:34:14.256Z,102595.27
2019-06-27T00:37:18.365Z,102587.28
2019-06-27T00:40:17.889Z,102600.44
2019-06-27T00:43:10.695Z,102596.37
2019-06-27T00:46:09.075Z,102592.53
2019-06-27T00:49:04.646Z,102589.73
2019-06-27T00:52:05.077Z,102603.98
2019-06-27T00:55:04.295Z,102601.85
2019-06-27T00:58:04.691Z,102607.20
2019-06-27T01:01:05.142Z,102594.23
2019-06-27T01:04:05.574Z,102594.14
2019-06-27T01:06:58.027Z,102599.33
2019-06-27T01:09:52.109Z,102596.04
2019-06-27T01:12:46.677Z,102615.73
2019-06-27T01:15:46.149Z,102608.83
2019-06-27T01:18:52.479Z,102606.63
2019-06-27T01:21:52.169Z,102616.05
2019-06-27T01:24:41.108Z,102606.36
2019-06-27T01:27:37.600Z,102606.09
2019-06-27T01:30:31.856Z,102605.23
2019-06-27T01:33:28.770Z,102608.21
2019-06-27T01:36:34.123Z,102614.01
2019-06-27T01:39:33.728Z,102614.13
2019-06-27T01:42:41.085Z,102609.03
2019-06-27T01:45:47.032Z,102607.23
2019-06-27T01:48:52.452Z,102614.00
2019-06-27T01:51:59.037Z,102609.89
2019-06-27T01:55:00.169Z,102615.70
2019-06-27T01:58:02.217Z,102620.66
2019-06-27T02:00:57.757Z,102615.34
2019-06-27T02:04:11.683Z,102620.22
2019-06-27T02:07:05.346Z,102623.08
2019-06-27T02:10:12.124Z,102625.42
2019-06-27T02:13:14.185Z,102627.70
2019-06-27T02:16:07.556Z,102627.45
2019-06-27T02:19:10.483Z,102632.87
2019-06-27T02:22:04.935Z,102636.58
2019-06-27T02:24:53.400Z,102636.25
2019-06-27T02:28:03.061Z,102635.66
2019-06-27T02:34:13.818Z,102634.87
2019-06-27T02:37:15.368Z,102633.03
2019-06-27T02:40:15.992Z,102645.01
2019-06-27T02:43:13.293Z,102633.36
2019-06-27T02:46:10.468Z,102632.12
2019-06-27T02:49:07.780Z,102638.50
2019-06-27T02:52:03.086Z,102639.86
2019-06-27T02:55:01.279Z,102631.36
2019-06-27T02:58:28.004Z,102626.61
2019-06-27T03:01:03.724Z,102632.52
2019-06-27T03:03:54.629Z,102630.63
2019-06-27T03:09:51.582Z,102636.65
2019-06-27T03:12:41.410Z,102631.41
2019-06-27T03:15:29.801Z,102633.64
2019-06-27T03:18:17.766Z,102631.90
2019-06-27T03:21:06.849Z,102630.50
2019-06-27T03:24:04.353Z,102638.57
2019-06-27T03:26:59.497Z,102642.45
2019-06-27T03:29:59.193Z,102640.22
2019-06-27T03:32:57.526Z,102642.95
2019-06-27T03:36:02.939Z,102643.72
2019-06-27T03:39:09.453Z,102650.18
2019-06-27T03:42:07.834Z,102648.75
2019-06-27T03:45:04.116Z,102655.30
2019-06-27T03:48:02.283Z,102659.12
2019-06-27T03:51:11.991Z,102661.83
2019-06-27T03:54:16.272Z,102660.26
2019-06-27T03:57:11.100Z,102672.26
2019-06-27T04:00:12.057Z,102664.63
2019-06-27T04:03:03.564Z,102686.66
2019-06-27T04:05:54.883Z,102682.30
2019-06-27T04:09:01.776Z,102680.08
2019-06-27T04:12:10.572Z,102675.58
2019-06-27T04:15:08.521Z,102676.26
2019-06-27T04:18:03.507Z,102679.14
2019-06-27T04:21:00.966Z,102677.13
2019-06-27T04:24:17.969Z,102689.97
2019-06-27T04:27:21.699Z,102679.61
2019-06-27T04:30:31.245Z,102684.94
2019-06-27T04:33:31.934Z,102683.41
2019-06-27T04:36:32.602Z,102684.91
2019-06-27T04:39:24.871Z,102690.55
2019-06-27T04:42:21.211Z,102695.98
2019-06-27T04:45:13.908Z,102692.39
2019-06-27T04:48:24.114Z,102686.87
2019-06-27T04:51:09.345Z,102695.45
2019-06-27T04:54:05.125Z,102711.56
2019-06-27T04:57:20.270Z,102699.72
2019-06-27T05:00:16.210Z,102709.23
2019-06-27T05:03:39.637Z,102710.08
2019-06-27T05:06:57.502Z,102702.95
2019-06-27T05:09:53.670Z,102706.84
2019-06-27T05:12:45.146Z,102718.33
2019-06-27T05:15:37.399Z,102718.58
2019-06-27T05:18:32.477Z,102722.41
2019-06-27T05:21:38.324Z,102720.28
2019-06-27T05:24:53.736Z,102717.27
2019-06-27T05:27:55.905Z,102734.25
2019-06-27T05:31:01.422Z,102740.36
2019-06-27T05:34:02.094Z,102737.44
2019-06-27T05:37:03.700Z,102733.13
2019-06-27T05:39:50.282Z,102735.64
2019-06-27T05:42:43.344Z,102738.28
2019-06-27T05:45:48.969Z,102737.26
2019-06-27T05:48:39.771Z,102726.66
2019-06-27T05:51:35.401Z,102726.68
2019-06-27T05:54:43.495Z,102728.79
2019-06-27T05:57:37.511Z,102725.70
2019-06-27T06:00:30.941Z,102730.53
2019-06-27T06:03:28.838Z,102725.89
2019-06-27T06:06:31.653Z,102730.27
2019-06-27T06:09:32.867Z,102727.61
2019-06-27T06:12:34.263Z,102724.81
2019-06-27T06:15:41.472Z,102723.58
2019-06-27T06:18:52.367Z,102730.35
2019-06-27T06:21:52.413Z,102718.73
2019-06-27T06:25:21.457Z,102738.38
2019-06-27T06:28:20.331Z,102727.68
2019-06-27T06:31:30.425Z,102735.20
2019-06-27T06:34:26.588Z,102733.44
2019-06-27T06:37:47.979Z,102734.90
2019-06-27T06:40:47.503Z,102737.50
2019-06-27T06:43:57.626Z,102739.23
2019-06-27T06:46:48.274Z,102741.55
2019-06-27T06:49:53.721Z,102749.70
2019-06-27T06:52:52.586Z,102750.98
2019-06-27T06:55:57.482Z,102753.02
2019-06-27T06:58:52.460Z,102750.56
2019-06-27T07:01:45.921Z,102749.50
2019-06-27T07:04:45.949Z,102749.28
2019-06-27T07:07:52.273Z,102764.44
2019-06-27T07:10:52.158Z,102761.38
2019-06-27T07:13:48.267Z,102765.03
2019-06-27T07:16:56.736Z,102761.19
2019-06-27T07:19:47.776Z,102759.48
2019-06-27T07:22:51.561Z,102761.91
2019-06-27T07:25:43.807Z,102756.67
2019-06-27T07:28:44.354Z,102754.12
2019-06-27T07:31:37.617Z,102750.80
2019-06-27T07:34:29.976Z,102751.72
2019-06-27T07:37:46.332Z,102748.30
2019-06-27T07:40:33.288Z,102745.09
2019-06-27T07:43:33.265Z,102749.52
2019-06-27T07:46:25.608Z,102752.27
2019-06-27T07:49:26.600Z,102759.20
2019-06-27T07:52:23.547Z,102758.87
2019-06-27T07:55:34.116Z,102755.86
2019-06-27T07:58:28.713Z,102750.83
2019-06-27T08:01:35.573Z,102752.22
2019-06-27T08:04:30.909Z,102748.69
2019-06-27T08:07:24.598Z,102751.09
2019-06-27T08:10:19.791Z,102749.12
2019-06-27T08:13:13.433Z,102759.20
2019-06-27T08:16:12.779Z,102754.66
2019-06-27T08:19:04.554Z,102752.09
2019-06-27T08:22:22.097Z,102754.86
2019-06-27T08:25:17.292Z,102754.08
2019-06-27T08:28:07.762Z,102752.95
2019-06-27T08:31:01.301Z,102742.53
2019-06-27T08:33:57.669Z,102746.08
2019-06-27T08:36:57.653Z,102748.91
2019-06-27T08:40:00.108Z,102750.56
2019-06-27T08:43:06.494Z,102733.31
2019-06-27T08:46:08.670Z,102732.89
2019-06-27T08:49:12.971Z,102731.75
2019-06-27T08:52:00.565Z,102735.64
2019-06-27T08:55:03.343Z,102738.20
2019-06-27T08:58:34.591Z,102730.23
2019-06-27T09:01:31.616Z,102740.87
2019-06-27T09:04:33.883Z,102740.99
2019-06-27T09:07:38.223Z,102744.42
2019-06-27T09:10:32.270Z,102740.57
2019-06-27T09:13:24.803Z,102730.38
2019-06-27T09:16:34.262Z,102734.55
2019-06-27T09:19:25.355Z,102720.72
2019-06-27T09:22:26.123Z,102737.05
2019-06-27T09:25:45.407Z,102736.12
2019-06-27T09:28:49.206Z,102733.30
2019-06-27T09:31:46.117Z,102723.34
2019-06-27T09:34:34.224Z,102720.80
2019-06-27T09:37:39.435Z,102718.50
2019-06-27T09:40:37.428Z,102714.75
2019-06-27T09:43:29.086Z,102725.94
2019-06-27T09:46:23.958Z,102711.05
2019-06-27T09:49:15.750Z,102720.82
2019-06-27T09:52:30.953Z,102726.11
2019-06-27T09:55:47.743Z,102726.63
2019-06-27T09:58:53.846Z,102719.06
2019-06-27T10:01:47.760Z,102721.81
2019-06-27T10:04:39.401Z,102717.41
2019-06-27T10:07:39.586Z,102711.16
2019-06-27T10:10:36.311Z,102710.17
2019-06-27T10:13:26.767Z,102712.19
2019-06-27T10:16:35.838Z,102707.68
2019-06-27T10:19:27.097Z,102700.02
2019-06-27T10:22:21.009Z,102709.37
2019-06-27T10:25:26.005Z,102698.56
2019-06-27T10:28:26.655Z,102701.00
2019-06-27T10:31:23.886Z,102696.38
2019-06-27T10:34:18.282Z,102721.43
2019-06-27T10:37:16.921Z,102701.00
2019-06-27T10:40:19.082Z,102701.73
2019-06-27T10:43:13.901Z,102703.62
2019-06-27T10:46:16.898Z,102695.70
2019-06-27T10:49:22.104Z,102707.67
2019-06-27T10:52:32.219Z,102699.91
2019-06-27T10:55:28.745Z,102704.16
2019-06-27T10:58:25.675Z,102703.12
2019-06-27T11:01:17.035Z,102702.06
2019-06-27T11:04:18.424Z,102695.22
2019-06-27T11:07:17.122Z,102695.06
2019-06-27T11:10:11.683Z,102683.16
2019-06-27T11:13:27.238Z,102678.98
2019-06-27T11:16:28.655Z,102698.41
2019-06-27T11:19:15.487Z,102680.14
2019-06-27T11:22:14.652Z,102685.80
2019-06-27T11:25:05.062Z,102681.45
2019-06-27T11:28:13.126Z,102681.12
2019-06-27T11:31:12.473Z,102689.56
2019-06-27T11:34:29.550Z,102687.75
2019-06-27T11:37:25.968Z,102678.41
2019-06-27T11:40:34.156Z,102674.14
2019-06-27T11:43:26.822Z,102661.55
2019-06-27T11:46:26.034Z,102668.38
2019-06-27T11:49:26.363Z,102666.23
2019-06-27T11:52:30.188Z,102659.83
2019-06-27T11:55:26.935Z,102663.30
2019-06-27T11:58:36.260Z,102666.30
2019-06-27T12:01:32.137Z,102663.61
2019-06-27T12:04:26.804Z,102655.94
2019-06-27T12:07:32.875Z,102657.00
2019-06-27T12:10:42.807Z,102654.48
2019-06-27T12:13:34.961Z,102659.11
2019-06-27T12:16:31.945Z,102644.00
2019-06-27T12:19:29.894Z,102654.02
2019-06-27T12:22:27.467Z,102651.48
2019-06-27T12:25:18.173Z,102653.29
2019-06-27T12:28:24.018Z,102674.34
2019-06-27T12:31:31.135Z,102649.30
2019-06-27T12:34:32.730Z,102643.91
2019-06-27T12:37:29.472Z,102646.45
2019-06-27T12:40:46.956Z,102653.33
2019-06-27T12:43:44.435Z,102646.50
2019-06-27T12:46:58.922Z,102640.94
2019-06-27T12:50:02.205Z,102641.62
2019-06-27T12:53:01.658Z,102639.85
2019-06-27T12:56:25.293Z,102629.87
2019-06-27T12:59:17.644Z,102636.91
2019-06-27T13:02:13.222Z,102630.32
2019-06-27T13:05:20.442Z,102642.12
2019-06-27T13:08:23.452Z,102643.95
2019-06-27T13:11:26.606Z,102636.19
2019-06-27T13:14:25.639Z,102641.60
2019-06-27T13:17:23.920Z,102635.86
2019-06-27T13:20:22.368Z,102648.73
2019-06-27T13:23:24.716Z,102631.69
2019-06-27T13:26:27.138Z,102634.09
2019-06-27T13:29:27.195Z,102625.23
2019-06-27T13:32:21.117Z,102625.52
2019-06-27T13:35:31.316Z,102632.47
2019-06-27T13:38:37.418Z,102621.40
2019-06-27T13:41:33.832Z,102621.89
2019-06-27T13:44:35.446Z,102623.68
2019-06-27T13:47:58.610Z,102626.13
2019-06-27T13:50:46.416Z,102616.81
2019-06-27T13:53:49.662Z,102606.50
2019-06-27T13:56:46.846Z,102603.22
2019-06-27T13:59:44.480Z,102610.39
2019-06-27T14:02:38.277Z,102612.38
2019-06-27T14:05:40.165Z,102603.22
2019-06-27T14:09:04.524Z,102593.72
2019-06-27T14:12:06.920Z,102582.88
2019-06-27T14:15:07.449Z,102590.05
2019-06-27T14:18:05.288Z,102584.56
2019-06-27T14:20:52.714Z,102586.39
2019-06-27T14:24:10.402Z,102580.52
2019-06-27T14:27:04.742Z,102581.94
2019-06-27T14:30:10.076Z,102575.10
2019-06-27T14:33:09.848Z,102579.50
2019-06-27T14:36:18.593Z,102581.03
2019-06-27T14:39:16.621Z,102578.34
2019-06-27T14:42:15.568Z,102585.53
2019-06-27T14:45:09.263Z,102580.53
2019-06-27T14:48:07.911Z,102573.01
2019-06-27T14:50:56.799Z,102580.53
2019-06-27T14:54:17.492Z,102573.77
2019-06-27T14:57:30.531Z,102566.39
2019-06-27T15:00:24.911Z,102561.11
2019-06-27T15:03:17.933Z,102578.77
2019-06-27T15:06:13.006Z,102565.64
2019-06-27T15:09:05.925Z,102572.75
2019-06-27T15:12:02.516Z,102576.67
2019-06-27T15:15:01.938Z,102563.18
2019-06-27T15:18:04.892Z,102568.04
2019-06-27T15:20:57.547Z,102577.95
2019-06-27T15:24:02.673Z,102565.89
2019-06-27T15:26:55.765Z,102554.60
2019-06-27T15:29:52.737Z,102565.55
2019-06-27T15:32:49.057Z,102566.87
2019-06-27T15:35:52.834Z,102572.37
2019-06-27T15:38:36.568Z,102565.72
2019-06-27T15:41:48.755Z,102571.62
2019-06-27T15:44:47.894Z,102573.39
2019-06-27T15:47:40.130Z,102555.36
2019-06-27T15:50:31.476Z,102576.44
2019-06-27T15:53:25.915Z,102560.07
2019-06-27T15:56:13.735Z,102558.58
2019-06-27T15:59:13.395Z,102561.80
2019-06-27T16:02:12.359Z,102565.59
2019-06-27T16:05:09.257Z,102547.67
2019-06-27T16:08:03.584Z,102557.02
2019-06-27T16:10:51.826Z,102541.91
2019-06-27T16:13:50.067Z,102546.66
2019-06-27T16:16:44.889Z,102534.38
2019-06-27T16:19:39.041Z,102535.92
2019-06-27T16:22:47.891Z,102533.23
2019-06-27T16:25:39.880Z,102535.69
2019-06-27T16:28:41.875Z,102540.34
2019-06-27T16:31:34.054Z,102531.09
2019-06-27T16:34:29.798Z,102535.24
2019-06-27T16:37:37.805Z,102534.36
2019-06-27T16:40:37.374Z,102530.63
2019-06-27T16:43:34.195Z,102523.36
2019-06-27T16:46:35.363Z,102520.65
2019-06-27T16:49:34.126Z,102528.19
2019-06-27T16:52:37.666Z,102522.50
2019-06-27T16:55:27.654Z,102530.94
2019-06-27T16:58:21.517Z,102529.03
2019-06-27T17:01:14.254Z,102531.77
2019-06-27T17:04:08.174Z,102526.33
2019-06-27T17:06:59.761Z,102529.06
2019-06-27T17:09:47.789Z,102526.45
2019-06-27T17:12:40.246Z,102532.45
2019-06-27T17:15:32.337Z,102525.98
2019-06-27T17:18:24.951Z,102522.82
2019-06-27T17:21:20.085Z,102530.65
2019-06-27T17:24:21.604Z,102520.94
2019-06-27T17:27:11.745Z,102529.91
2019-06-27T17:30:00.622Z,102540.34
2019-06-27T17:32:55.491Z,102535.08
2019-06-27T17:35:52.424Z,102534.09
2019-06-27T17:38:39.906Z,102521.56
2019-06-27T17:41:37.939Z,102525.81
2019-06-27T17:44:34.894Z,102532.85
2019-06-27T17:47:27.286Z,102531.71
2019-06-27T17:50:27.099Z,102537.05
2019-06-27T17:53:31.334Z,102536.42
2019-06-27T17:56:45.640Z,102534.41
2019-06-27T18:00:07.297Z,102543.30
2019-06-27T18:03:01.630Z,102543.86
2019-06-27T18:06:04.211Z,102545.31
2019-06-27T18:09:04.783Z,102542.81
2019-06-27T18:11:55.900Z,102540.38
2019-06-27T18:14:52.148Z,102540.53
2019-06-27T18:17:53.079Z,102547.46
2019-06-27T18:20:44.409Z,102555.03
2019-06-27T18:23:36.749Z,102557.52
2019-06-27T18:26:41.382Z,102556.61
2019-06-27T18:29:30.629Z,102555.52
2019-06-27T18:32:22.820Z,102553.88
2019-06-27T18:35:16.905Z,102558.00
2019-06-27T18:38:13.808Z,102566.95
2019-06-27T18:41:03.764Z,102557.89
2019-06-27T18:44:04.859Z,102557.83
2019-06-27T18:46:59.653Z,102562.84
2019-06-27T18:49:58.004Z,102559.13
2019-06-27T18:52:47.831Z,102557.56
2019-06-27T18:55:56.516Z,102564.09
2019-06-27T18:59:13.241Z,102563.55
2019-06-27T19:02:08.076Z,102570.88
2019-06-27T19:05:00.796Z,102566.68
2019-06-27T19:08:04.624Z,102575.70
2019-06-27T19:11:14.563Z,102575.76
2019-06-27T19:14:10.035Z,102577.46
2019-06-27T19:17:26.738Z,102582.05
2019-06-27T19:20:32.459Z,102580.48
2019-06-27T19:23:43.227Z,102587.22
2019-06-27T19:26:57.249Z,102589.84
2019-06-27T19:29:51.289Z,102594.52
2019-06-27T19:33:08.697Z,102594.12
2019-06-27T19:36:04.389Z,102594.52
2019-06-27T19:39:26.121Z,102600.05
2019-06-27T19:42:29.930Z,102597.02
2019-06-27T19:45:43.101Z,102608.22
2019-06-27T19:48:31.415Z,102617.00
2019-06-27T19:51:18.801Z,102612.80
2019-06-27T19:54:06.639Z,102617.91
2019-06-27T19:57:05.887Z,102630.52
2019-06-27T20:00:00.915Z,102633.27
2019-06-27T20:02:56.219Z,102628.03
2019-06-27T20:05:46.909Z,102629.14
2019-06-27T20:08:41.613Z,102624.45
2019-06-27T20:11:30.168Z,102625.75
2019-06-27T20:14:25.010Z,102621.02
2019-06-27T20:17:20.119Z,102622.05
2019-06-27T20:20:10.611Z,102621.94
2019-06-27T20:23:06.461Z,102625.32
2019-06-27T20:26:09.883Z,102629.44
2019-06-27T20:29:09.534Z,102619.32
2019-06-27T20:32:03.587Z,102624.45
2019-06-27T20:35:09.874Z,102616.58
2019-06-27T20:38:12.439Z,102621.23
2019-06-27T20:41:09.563Z,102622.17
2019-06-27T20:43:58.684Z,102626.22
2019-06-27T20:47:15.498Z,102635.92
2019-06-27T20:50:09.489Z,102635.16
2019-06-27T20:53:13.986Z,102629.81
2019-06-27T20:56:25.078Z,102630.89
2019-06-27T20:59:38.432Z,102628.41
2019-06-27T21:02:31.622Z,102629.61
2019-06-27T21:05:23.509Z,102633.14
2019-06-27T21:08:30.297Z,102625.86
2019-06-27T21:11:33.443Z,102635.36
2019-06-27T21:14:50.800Z,102631.17
2019-06-27T21:18:05.626Z,102636.08
2019-06-27T21:21:01.196Z,102635.44
2019-06-27T21:24:09.568Z,102630.45
2019-06-27T21:27:08.541Z,102635.66
2019-06-27T21:30:04.851Z,102636.87
2019-06-27T21:33:00.125Z,102638.66
2019-06-27T21:36:01.466Z,102640.70
2019-06-27T21:39:08.096Z,102647.86
2019-06-27T21:42:03.935Z,102649.52
2019-06-27T21:45:00.860Z,102647.81
2019-06-27T21:48:09.895Z,102657.09
2019-06-27T21:51:26.071Z,102649.28
2019-06-27T21:54:13.028Z,102389.08
2019-06-27T21:57:27.997Z,102657.20
2019-06-27T22:00:20.740Z,102640.03
2019-06-27T22:03:26.150Z,102642.47
2019-06-27T22:06:27.372Z,102642.83
2019-06-27T22:09:25.717Z,102651.73
2019-06-27T22:12:35.931Z,102650.39
2019-06-27T22:15:40.982Z,102645.05
2019-06-27T22:18:42.446Z,102646.38
2019-06-27T22:22:01.376Z,102644.28
2019-06-27T22:24:57.451Z,102642.69
2019-06-27T22:28:00.240Z,102636.27
2019-06-27T22:31:10.025Z,102637.09
2019-06-27T22:34:09.920Z,102640.03
2019-06-27T22:37:40.499Z,102642.31
2019-06-27T22:41:03.064Z,102632.12
2019-06-27T22:44:14.940Z,102628.41
2019-06-27T22:50:56.170Z,102631.91
2019-06-27T22:54:07.906Z,102626.34
2019-06-27T22:57:04.282Z,102624.11
2019-06-27T23:00:07.012Z,102618.86
2019-06-27T23:03:12.026Z,102619.84
2019-06-27T23:06:24.323Z,102624.20
2019-06-27T23:09:56.451Z,102632.59
2019-06-27T23:12:47.717Z,102620.09
2019-06-27T23:15:42.954Z,102617.89
2019-06-27T23:18:40.671Z,102611.12
2019-06-27T23:21:47.833Z,102611.39
2019-06-27T23:24:48.110Z,102634.53
2019-06-27T23:27:42.429Z,102614.16
2019-06-27T23:30:41.239Z,102609.79
2019-06-27T23:33:45.926Z,102607.95
2019-06-27T23:36:37.340Z,102605.84
2019-06-27T23:39:41.864Z,102602.84
2019-06-27T23:42:27.660Z,102598.47
2019-06-27T23:45:30.206Z,102596.58
2019-06-27T23:48:20.990Z,102597.58
2019-06-27T23:51:15.465Z,102598.34
2019-06-27T23:54:13.154Z,102598.44
2019-06-27T23:57:23.799Z,102603.64
